地図

経路データ

SID SEASON NUMBER BASIN SUBBASIN NAME ISO_TIME NATURE LAT LON WMO_WIND WMO_PRES WMO_AGENCY TRACK_TYPE DIST2LAND LANDFALL IFLAG USA_AGENCY USA_ATCF_ID USA_LAT USA_LON USA_RECORD USA_STATUS USA_WIND USA_PRES USA_SSHS USA_R34_NE USA_R34_SE USA_R34_SW USA_R34_NW USA_R50_NE USA_R50_SE USA_R50_SW USA_R50_NW USA_R64_NE USA_R64_SE USA_R64_SW USA_R64_NW USA_POCI USA_ROCI USA_RMW USA_EYE TOKYO_LAT TOKYO_LON TOKYO_GRADE TOKYO_WIND TOKYO_PRES TOKYO_R50_DIR TOKYO_R50_LONG TOKYO_R50_SHORT TOKYO_R30_DIR TOKYO_R30_LONG TOKYO_R30_SHORT TOKYO_LAND CMA_LAT CMA_LON CMA_CAT CMA_WIND CMA_PRES HKO_LAT HKO_LON HKO_CAT HKO_WIND HKO_PRES NEWDELHI_LAT NEWDELHI_LON NEWDELHI_GRADE NEWDELHI_WIND NEWDELHI_PRES NEWDELHI_CI NEWDELHI_DP NEWDELHI_POCI REUNION_LAT REUNION_LON REUNION_TYPE REUNION_WIND REUNION_PRES REUNION_TNUM REUNION_CI REUNION_RMW REUNION_R34_NE REUNION_R34_SE REUNION_R34_SW REUNION_R34_NW REUNION_R50_NE REUNION_R50_SE REUNION_R50_SW REUNION_R50_NW REUNION_R64_NE REUNION_R64_SE REUNION_R64_SW REUNION_R64_NW BOM_LAT BOM_LON BOM_TYPE BOM_WIND BOM_PRES BOM_TNUM BOM_CI BOM_RMW BOM_R34_NE BOM_R34_SE BOM_R34_SW BOM_R34_NW BOM_R50_NE BOM_R50_SE BOM_R50_SW BOM_R50_NW BOM_R64_NE BOM_R64_SE BOM_R64_SW BOM_R64_NW BOM_ROCI BOM_POCI BOM_EYE BOM_POS_METHOD BOM_PRES_METHOD NADI_LAT NADI_LON NADI_CAT NADI_WIND NADI_PRES WELLINGTON_LAT WELLINGTON_LON WELLINGTON_WIND WELLINGTON_PRES DS824_LAT DS824_LON DS824_STAGE DS824_WIND DS824_PRES TD9636_LAT TD9636_LON TD9636_STAGE TD9636_WIND TD9636_PRES TD9635_LAT TD9635_LON TD9635_WIND TD9635_PRES TD9635_ROCI NEUMANN_LAT NEUMANN_LON NEUMANN_CLASS NEUMANN_WIND NEUMANN_PRES MLC_LAT MLC_LON MLC_CLASS MLC_WIND MLC_PRES USA_GUST BOM_GUST BOM_GUST_PER REUNION_GUST REUNION_GUST_PER USA_SEAHGT USA_SEARAD_NE USA_SEARAD_SE USA_SEARAD_SW USA_SEARAD_NW STORM_SPEED STORM_DIR
1973298N15070 1973 117 NI AS NOT_NAMED 1973-10-25 00:00:00 TS 14.6000 70.1000 main 401 386 O________OO___ jtwc_io IO111973 14.6000 70.1000 -1 14.6000 70.1000 TC 25 14.6000 70.1000 1 6 4
1973298N15070 1973 117 NI AS NOT_NAMED 1973-10-25 03:00:00 TS 14.8978 70.1016 main 386 372 P________PP___ IO111973 14.9100 70.0875 -1 14.9100 70.0875 TC 25 14.8735 70.1296 1 6 2
1973298N15070 1973 117 NI AS NOT_NAMED 1973-10-25 06:00:00 TS 15.1825 70.1191 main 372 353 O________OP___ jtwc_io IO111973 15.2000 70.1000 -1 15.2000 70.1000 TC 25 15.1475 70.1574 1 6 6
1973298N15070 1973 117 NI AS NOT_NAMED 1973-10-25 09:00:00 TS 15.4459 70.1605 main 353 343 P________PP___ IO111973 15.4575 70.1500 -1 15.4575 70.1500 TC 25 15.4228 70.1815 1 5 9
1973298N15070 1973 117 NI AS NOT_NAMED 1973-10-25 12:00:00 TS 15.7000 70.2000 main 343 337 O________OO___ jtwc_io IO111973 15.7000 70.2000 -1 15.7000 70.2000 TC 25 15.7000 70.2000 1 5 4
1973298N15070 1973 117 NI AS NOT_NAMED 1973-10-25 15:00:00 TS 15.9592 70.2043 main 335 332 P________PP___ IO111973 15.9500 70.2001 -1 15.9500 70.2001 TC 25 15.9775 70.2129 1 5 0
1973298N15070 1973 117 NI AS NOT_NAMED 1973-10-25 18:00:00 TS 16.2150 70.2092 main 332 330 O________OP___ jtwc_io IO111973 16.2000 70.2000 -1 16.2000 70.2000 TC 25 16.2450 70.2276 1 5 5
1973298N15070 1973 117 NI AS NOT_NAMED 1973-10-25 21:00:00 TS 16.4733 70.2412 main 330 314 P________PP___ IO111973 16.4650 70.2350 -1 16.4650 70.2350 TC 25 16.4900 70.2535 1 5 10
1973298N15070 1973 117 NI AS NOT_NAMED 1973-10-26 00:00:00 TS 16.7000 70.3000 main 314 297 O________OO___ jtwc_io IO111973 16.7000 70.3000 -1 16.7000 70.3000 TC 25 16.7000 70.3000 1 4 20
1973298N15070 1973 117 NI AS NOT_NAMED 1973-10-26 03:00:00 TS 16.8714 70.3905 main 297 284 P________PP___ IO111973 16.8725 70.3925 -1 16.8725 70.3925 TC 25 16.8691 70.3865 1 4 32
1973298N15070 1973 117 NI AS NOT_NAMED 1973-10-26 06:00:00 TS 17.0009 70.4975 main 284 271 O________OP___ jtwc_io IO111973 17.0000 70.5000 -1 17.0000 70.5000 TC 25 17.0026 70.4924 1 3 40
1973298N15070 1973 117 NI AS NOT_NAMED 1973-10-26 09:00:00 TS 17.1132 70.6057 main 271 258 P________PP___ IO111973 17.1150 70.6075 -1 17.1150 70.6075 TC 25 17.1097 70.6021 1 3 44
1973298N15070 1973 117 NI AS NOT_NAMED 1973-10-26 12:00:00 TS 17.2000 70.7000 main 258 244 O________OO___ jtwc_io IO111973 17.2000 70.7000 -1 17.2000 70.7000 TC 25 17.2000 70.7000 1 2 44
1973298N15070 1973 117 NI AS NOT_NAMED 1973-10-26 15:00:00 TS 17.2604 70.7544 main 244 244 P________PP___ IO111973 17.2500 70.7575 -1 17.2500 70.7575 TC 25 17.2812 70.7483 1 1 38
1973298N15070 1973 117 NI AS NOT_NAMED 1973-10-26 18:00:00 TS 17.3166 70.7951 main 244 239 O________OP___ jtwc_io IO111973 17.3000 70.8000 -1 17.3000 70.8000 TC 25 17.3499 70.7852 1 2 30
1973298N15070 1973 117 NI AS NOT_NAMED 1973-10-26 21:00:00 TS 17.4012 70.8382 main 239 225 P________PP___ IO111973 17.3925 70.8425 -1 17.3925 70.8425 TC 25 17.4187 70.8295 1 2 27
1973298N15070 1973 117 NI AS NOT_NAMED 1973-10-27 00:00:00 TS 17.5000 70.9000 main 225 211 O________OO___ jtwc_io IO111973 17.5000 70.9000 -1 17.5000 70.9000 TC 25 17.5000 70.9000 1 2 36
1973298N15070 1973 117 NI AS NOT_NAMED 1973-10-27 03:00:00 TS 17.5961 70.9885 main 211 198 P________PP___ IO111973 17.5925 70.9775 -1 17.5925 70.9775 TC 25 17.6032 71.0104 1 3 45
1973298N15070 1973 117 NI AS NOT_NAMED 1973-10-27 06:00:00 TS 17.7084 71.1182 main 198 175 O________OP___ jtwc_io IO111973 17.7000 71.1000 -1 17.7000 71.1000 TC 25 17.7252 71.1546 1 4 49
1973298N15070 1973 117 NI AS NOT_NAMED 1973-10-27 09:00:00 TS 17.8466 71.2954 main 175 149 P________PP___ IO111973 17.8401 71.2824 -1 17.8401 71.2824 TC 25 17.8596 71.3216 1 5 51
1973298N15070 1973 117 NI AS NOT_NAMED 1973-10-27 12:00:00 TS 18.0000 71.5000 main 149 O________OO___ jtwc_io IO111973 18.0000 71.5000 -1 18.0000 71.5000 TC 25 18.0000 71.5000 6 5 52

IBTrACS Databaseについて

本データベースは、米国NOAAが公開する1842年以降の世界の熱帯低気圧のベストトラックデータアーカイブInternational Best Track Archive for Climate Stewardship (IBTrACS)を、ウェブで閲覧しやすい形式に変換したものです。

最終更新日:2021-11-26